createdAt,value
2019-02-04T00:02:12.794Z,13.30
2019-02-04T00:04:43.195Z,8.58
2019-02-04T00:11:04.177Z,9.95
2019-02-04T00:13:34.080Z,9.85
2019-02-04T00:16:04.889Z,9.68
2019-02-04T00:22:26.366Z,9.10
2019-02-04T00:35:06.013Z,11.50
2019-02-04T00:44:36.959Z,13.93
2019-02-04T00:47:06.915Z,12.68
2019-02-04T01:06:25.074Z,10.50
2019-02-04T01:39:33.786Z,15.32
2019-02-04T01:42:04.284Z,10.45
2019-02-04T01:44:36.354Z,14.20
2019-02-04T01:47:14.431Z,11.22
2019-02-04T01:49:38.007Z,14.75
2019-02-04T01:55:59.244Z,12.23
2019-02-04T01:58:30.275Z,13.80
2019-02-04T02:01:00.878Z,12.13
2019-02-04T02:03:32.059Z,12.80
2019-02-04T02:20:02.035Z,18.52
2019-02-04T02:22:32.591Z,11.20
2019-02-04T02:32:54.139Z,13.75
2019-02-04T02:35:24.096Z,13.72
2019-02-04T02:37:54.046Z,13.93
2019-02-04T02:40:28.814Z,10.18
2019-02-04T02:42:59.186Z,9.48
2019-02-04T02:45:29.753Z,15.73
2019-02-04T02:48:00.064Z,12.85
2019-02-04T02:50:30.863Z,15.25
2019-02-04T02:53:00.870Z,13.60
2019-02-04T02:59:21.646Z,15.85
2019-02-04T03:12:14.116Z,13.10
2019-02-04T03:14:45.080Z,13.43
2019-02-04T03:17:16.130Z,12.82
2019-02-04T03:19:46.420Z,14.78
2019-02-04T03:22:16.618Z,10.63
2019-02-04T04:20:16.563Z,24.07
2019-02-04T04:22:47.376Z,16.93
2019-02-04T04:31:56.712Z,20.68
2019-02-04T04:34:26.590Z,21.68
2019-02-04T04:43:18.512Z,28.23
2019-02-04T04:55:57.208Z,28.65
2019-02-04T05:33:54.406Z,29.57
2019-02-04T05:36:24.326Z,36.42
2019-02-04T05:38:54.484Z,39.40
2019-02-04T05:41:24.702Z,30.97
2019-02-04T05:43:54.863Z,45.35
2019-02-04T05:46:25.022Z,33.08
2019-02-04T05:48:55.159Z,35.40
2019-02-04T05:51:25.883Z,35.83
2019-02-04T05:53:55.853Z,35.85
2019-02-04T05:56:25.794Z,37.58
2019-02-04T05:58:56.213Z,34.38
2019-02-04T06:01:26.704Z,32.50
2019-02-04T06:03:56.880Z,38.17
2019-02-04T06:06:26.803Z,37.53
2019-02-04T06:08:56.696Z,38.65
2019-02-04T06:11:38.096Z,54.27
2019-02-04T06:14:08.162Z,51.45
2019-02-04T06:16:38.065Z,33.25
2019-02-04T06:19:08.059Z,40.43
2019-02-04T06:21:38.012Z,30.15
2019-02-04T06:24:08.134Z,30.85
2019-02-04T06:26:38.150Z,48.23
2019-02-04T06:29:08.519Z,35.05
2019-02-04T06:31:38.434Z,39.15
2019-02-04T06:34:08.654Z,37.03
2019-02-04T06:36:39.981Z,34.45
2019-02-04T06:42:54.901Z,33.70
2019-02-04T06:45:25.173Z,34.70
2019-02-04T06:47:55.115Z,28.70
2019-02-04T06:50:26.047Z,33.88
2019-02-04T06:56:28.752Z,40.10
2019-02-04T07:07:07.691Z,41.92
2019-02-04T07:09:37.578Z,30.52
2019-02-04T07:12:07.555Z,39.67
2019-02-04T07:14:37.468Z,44.95
2019-02-04T07:17:07.716Z,44.53
2019-02-04T07:19:37.943Z,41.00
2019-02-04T07:25:40.387Z,54.25
2019-02-04T07:28:10.464Z,54.40
2019-02-04T07:30:40.503Z,74.37
2019-02-04T07:33:10.674Z,89.00
2019-02-04T07:35:40.884Z,97.70
2019-02-04T07:41:43.731Z,60.55
2019-02-04T07:44:13.632Z,48.90
2019-02-04T07:46:43.803Z,51.10
2019-02-04T08:00:44.028Z,66.22
2019-02-04T08:03:15.142Z,54.88
2019-02-04T08:05:45.191Z,67.65
2019-02-04T08:08:15.170Z,64.82
2019-02-04T08:10:45.619Z,65.15
2019-02-04T08:13:15.552Z,69.75
2019-02-04T08:27:16.382Z,57.20
2019-02-04T08:29:46.282Z,50.08
2019-02-04T08:32:16.430Z,70.17
2019-02-04T08:34:46.327Z,64.70
2019-02-04T08:37:16.561Z,54.80
2019-02-04T08:39:46.683Z,60.88
2019-02-04T08:42:16.612Z,58.85
2019-02-04T08:44:47.076Z,60.60
2019-02-04T08:47:22.951Z,68.10
2019-02-04T08:49:58.038Z,61.50
2019-02-04T08:52:22.163Z,69.97
2019-02-04T08:54:52.325Z,47.62
2019-02-04T08:57:22.535Z,58.20
2019-02-04T08:59:52.467Z,64.22
2019-02-04T09:02:22.471Z,46.10
2019-02-04T09:04:52.957Z,43.25
2019-02-04T09:07:23.355Z,52.30
2019-02-04T09:09:53.582Z,45.50
2019-02-04T09:12:23.583Z,49.48
2019-02-04T09:14:53.715Z,53.28
2019-02-04T09:17:23.731Z,46.70
2019-02-04T09:19:54.516Z,46.55
2019-02-04T09:22:24.418Z,44.23
2019-02-04T09:24:57.220Z,42.33
2019-02-04T09:27:27.110Z,37.88
2019-02-04T09:29:57.189Z,36.68
2019-02-04T09:32:27.471Z,33.63
2019-02-04T09:34:57.417Z,30.50
2019-02-04T09:37:27.574Z,30.70
2019-02-04T09:39:57.831Z,35.43
2019-02-04T09:42:27.833Z,31.95
2019-02-04T09:44:58.719Z,22.07
2019-02-04T09:47:29.542Z,21.60
2019-02-04T10:54:31.177Z,14.30
2019-02-04T10:57:01.241Z,12.63
2019-02-04T10:59:31.290Z,14.37
2019-02-04T11:02:01.192Z,13.17
2019-02-04T11:04:31.718Z,22.10
2019-02-04T11:07:01.929Z,17.37
2019-02-04T11:09:31.881Z,16.63
2019-02-04T11:12:01.737Z,14.53
2019-02-04T11:14:32.017Z,16.00
2019-02-04T11:17:02.183Z,14.27
2019-02-04T11:19:32.399Z,10.30
2019-02-04T11:22:02.624Z,15.43
2019-02-04T11:24:32.967Z,16.83
2019-02-04T11:27:03.099Z,13.20
2019-02-04T11:29:33.264Z,10.30
2019-02-04T11:32:03.406Z,15.00
2019-02-04T11:34:33.936Z,9.43
2019-02-04T11:37:03.840Z,9.40
2019-02-04T11:39:33.837Z,11.13
2019-02-04T11:42:04.152Z,10.23
2019-02-04T11:44:34.092Z,9.03
2019-02-04T11:47:04.483Z,6.73
2019-02-04T11:49:34.470Z,7.70
2019-02-04T11:52:04.819Z,9.40
2019-02-04T11:54:34.688Z,8.60
2019-02-04T11:57:04.884Z,12.53
2019-02-04T12:03:08.701Z,14.17
2019-02-04T12:05:38.980Z,10.60
2019-02-04T12:08:09.324Z,17.80
2019-02-04T12:22:02.823Z,10.60
2019-02-04T12:47:25.234Z,8.30
2019-02-04T12:49:55.476Z,14.60
2019-02-04T12:58:55.774Z,14.50
2019-02-04T13:01:20.066Z,17.63
2019-02-04T13:03:50.770Z,12.07
2019-02-04T13:06:20.646Z,11.87
2019-02-04T13:08:50.871Z,10.40
2019-02-04T13:11:20.840Z,9.50
2019-02-04T13:13:51.553Z,15.63
2019-02-04T13:16:21.578Z,11.93
2019-02-04T13:18:51.717Z,17.47
2019-02-04T13:21:21.584Z,11.87
2019-02-04T13:23:51.705Z,12.50
2019-02-04T13:26:21.843Z,13.53
2019-02-04T13:28:51.732Z,18.13
2019-02-04T13:31:22.155Z,10.63
2019-02-04T13:33:52.030Z,10.40
2019-02-04T13:36:22.146Z,9.57
2019-02-04T13:38:52.037Z,13.27
2019-02-04T13:41:22.325Z,11.53
2019-02-04T13:43:52.270Z,15.33
2019-02-04T13:46:22.394Z,10.93
2019-02-04T13:48:52.542Z,18.07
2019-02-04T13:51:22.623Z,11.93
2019-02-04T13:53:52.576Z,8.87
2019-02-04T13:56:22.467Z,14.23
2019-02-04T13:58:52.462Z,19.70
2019-02-04T14:01:22.491Z,10.70
2019-02-04T14:03:52.884Z,12.90
2019-02-04T14:06:23.348Z,14.97
2019-02-04T14:08:53.678Z,17.33
2019-02-04T14:11:23.976Z,13.90
2019-02-04T14:13:54.256Z,15.00
2019-02-04T14:16:24.362Z,19.60
2019-02-04T14:18:54.389Z,14.43
2019-02-04T14:21:24.542Z,17.47
2019-02-04T14:23:54.519Z,10.80
2019-02-04T14:26:24.423Z,9.77
2019-02-04T14:28:54.880Z,13.50
2019-02-04T14:35:10.067Z,9.97
2019-02-04T14:37:40.246Z,11.47
2019-02-04T14:40:18.581Z,14.83
2019-02-04T14:42:42.960Z,10.70
2019-02-04T14:45:27.295Z,10.40
2019-02-04T14:48:19.173Z,15.23
2019-02-04T14:51:44.875Z,9.57
2019-02-04T14:55:06.053Z,9.37
2019-02-04T14:57:54.335Z,13.67
2019-02-04T15:07:59.748Z,13.70
2019-02-04T15:11:13.307Z,11.07
2019-02-04T15:14:29.963Z,13.27
2019-02-04T15:17:15.861Z,11.80
2019-02-04T15:27:47.192Z,14.50
2019-02-04T15:31:12.331Z,11.97
2019-02-04T15:34:03.200Z,13.43
2019-02-04T15:37:15.525Z,10.00
2019-02-04T15:40:29.258Z,11.50
2019-02-04T15:43:34.262Z,12.95
2019-02-04T15:46:16.847Z,12.80
2019-02-04T15:49:50.873Z,14.47
2019-02-04T15:52:16.835Z,10.30
2019-02-04T15:54:47.148Z,15.67
2019-02-04T15:57:17.279Z,13.83
2019-02-04T15:59:47.250Z,13.83
2019-02-04T16:02:17.880Z,8.50
2019-02-04T16:04:47.753Z,15.80
2019-02-04T16:07:17.790Z,10.27
2019-02-04T16:09:48.044Z,17.73
2019-02-04T16:12:18.614Z,12.93
2019-02-04T16:18:39.840Z,19.55
2019-02-04T16:21:10.141Z,19.85
2019-02-04T16:23:40.242Z,13.60
2019-02-04T16:26:10.630Z,20.95
2019-02-04T16:28:42.865Z,18.47
2019-02-04T16:31:15.942Z,19.87
2019-02-04T16:33:45.918Z,21.68
2019-02-04T16:36:18.642Z,20.17
2019-02-04T16:38:48.609Z,19.50
2019-02-04T16:41:18.677Z,18.20
2019-02-04T16:43:48.606Z,19.87
2019-02-04T16:46:18.843Z,24.20
2019-02-04T16:48:48.821Z,21.73
2019-02-04T16:51:19.590Z,19.65
2019-02-04T16:53:49.981Z,18.98
2019-02-04T17:00:08.139Z,20.37
2019-02-04T17:02:38.280Z,17.50
2019-02-04T17:05:11.597Z,20.97
2019-02-04T17:07:42.276Z,16.85
2019-02-04T17:10:17.222Z,16.30
2019-02-04T17:12:47.498Z,18.95
2019-02-04T17:15:17.528Z,18.35
2019-02-04T17:17:48.073Z,22.53
2019-02-04T17:20:22.601Z,18.90
2019-02-04T17:22:52.643Z,17.25
2019-02-04T17:25:22.936Z,19.05
2019-02-04T17:27:53.445Z,21.40
2019-02-04T17:30:24.879Z,16.93
2019-02-04T17:32:55.489Z,20.23
2019-02-04T17:35:25.643Z,23.32
2019-02-04T17:37:55.785Z,19.62
2019-02-04T17:40:26.476Z,25.25
2019-02-04T17:42:58.630Z,23.70
2019-02-04T17:45:28.734Z,21.45
2019-02-04T17:47:59.411Z,17.40
2019-02-04T17:54:20.343Z,19.42
2019-02-04T17:56:50.588Z,21.85
2019-02-04T17:59:23.088Z,20.52
2019-02-04T18:01:52.442Z,42.17
2019-02-04T18:08:08.329Z,26.57
2019-02-04T18:10:38.215Z,25.12
2019-02-04T18:13:09.095Z,25.52
2019-02-04T18:15:39.135Z,27.82
2019-02-04T18:18:09.328Z,26.15
2019-02-04T18:20:39.325Z,27.52
2019-02-04T18:23:11.317Z,20.50
2019-02-04T18:25:41.746Z,30.08
2019-02-04T18:28:12.527Z,25.92
2019-02-04T18:30:42.893Z,26.07
2019-02-04T18:33:13.106Z,25.02
2019-02-04T18:35:43.917Z,37.23
2019-02-04T18:38:13.830Z,29.70
2019-02-04T18:40:44.064Z,32.48
2019-02-04T18:47:05.251Z,28.05
2019-02-04T18:49:35.175Z,26.65
2019-02-04T18:52:05.645Z,26.68
2019-02-04T18:54:36.086Z,23.52
2019-02-04T18:57:06.713Z,24.40
2019-02-04T18:59:36.798Z,23.80
2019-02-04T19:02:07.505Z,27.02
2019-02-04T19:08:29.964Z,36.55
2019-02-04T19:10:59.850Z,27.98
2019-02-04T19:20:15.145Z,31.10
2019-02-04T19:22:45.253Z,30.65
2019-02-04T19:32:22.772Z,28.73
2019-02-04T19:34:52.930Z,27.37
2019-02-04T19:51:42.298Z,26.62
2019-02-04T20:01:31.717Z,21.80
2019-02-04T20:04:01.750Z,27.82
2019-02-04T20:13:14.222Z,22.67
2019-02-04T20:15:44.603Z,24.27
2019-02-04T20:22:29.219Z,25.15
2019-02-04T20:24:59.135Z,21.87
2019-02-04T20:27:29.822Z,32.85
2019-02-04T20:29:59.727Z,25.17
2019-02-04T20:36:20.541Z,27.40
2019-02-04T20:38:50.559Z,27.15
2019-02-04T20:41:23.576Z,23.47
2019-02-04T20:43:53.502Z,23.32
2019-02-04T20:46:23.503Z,28.60
2019-02-04T20:48:53.448Z,40.48
2019-02-04T20:51:23.693Z,32.75
2019-02-04T20:57:38.833Z,30.15
2019-02-04T21:00:14.310Z,37.50
2019-02-04T21:02:44.225Z,31.17
2019-02-04T21:05:14.429Z,38.17
2019-02-04T21:07:44.784Z,34.90
2019-02-04T21:10:18.750Z,32.15
2019-02-04T21:12:48.916Z,30.40
2019-02-04T21:15:20.035Z,40.03
2019-02-04T21:17:50.317Z,39.33
2019-02-04T21:20:22.454Z,32.48
2019-02-04T21:22:52.679Z,28.57
2019-02-04T21:25:23.128Z,32.80
2019-02-04T21:27:53.912Z,28.95
2019-02-04T21:34:08.695Z,27.27
2019-02-04T21:36:38.595Z,29.00
2019-02-04T21:39:10.283Z,27.22
2019-02-04T21:41:40.421Z,32.50
2019-02-04T22:10:55.180Z,50.17
2019-02-04T22:13:25.927Z,60.23
2019-02-04T22:15:55.810Z,54.23
2019-02-04T22:18:25.803Z,48.45
2019-02-04T22:20:56.074Z,39.90
2019-02-04T22:23:26.597Z,54.48
2019-02-04T22:25:57.058Z,55.83
2019-02-04T22:28:27.271Z,35.70
2019-02-04T22:30:57.689Z,37.42
2019-02-04T22:33:27.785Z,40.52
2019-02-04T22:35:57.966Z,38.95
2019-02-04T22:38:27.864Z,45.73
2019-02-04T22:40:57.748Z,34.33
2019-02-04T22:43:27.995Z,39.73
2019-02-04T22:45:58.196Z,64.45
2019-02-04T22:48:28.209Z,44.93
2019-02-04T22:50:58.118Z,38.67
2019-02-04T22:53:28.272Z,33.78
2019-02-04T22:55:58.613Z,35.50
2019-02-04T22:58:28.821Z,44.48
2019-02-04T23:01:25.513Z,30.25
2019-02-04T23:03:55.474Z,40.30
2019-02-04T23:06:25.451Z,41.90
2019-02-04T23:08:55.494Z,33.25
2019-02-04T23:11:25.480Z,39.27
2019-02-04T23:13:55.819Z,39.63
2019-02-04T23:16:26.120Z,35.48
2019-02-04T23:18:56.350Z,34.65
2019-02-04T23:21:26.531Z,37.75
2019-02-04T23:23:56.870Z,37.93
2019-02-04T23:26:26.765Z,35.25
2019-02-04T23:28:57.042Z,32.90
2019-02-04T23:31:27.017Z,31.60
2019-02-04T23:33:57.209Z,50.38
2019-02-04T23:36:27.330Z,37.23
2019-02-04T23:38:57.545Z,39.88
2019-02-04T23:41:27.582Z,37.23
2019-02-04T23:43:57.710Z,30.75
2019-02-04T23:46:28.141Z,33.92
2019-02-04T23:48:58.109Z,31.70
2019-02-04T23:51:28.571Z,38.73
2019-02-04T23:53:58.774Z,32.95
2019-02-04T23:56:28.849Z,34.95
